Time;durP1;ratioP1;P1;durP2;ratioP2;P2;SDS_P1;SDS_P2;PMS_P1;PMS_P2;Temp;Humidity;BMP_temperature;BMP_pressure;BME280_temperature;BME280_humidity;BME280_pressure;Samples;Min_cycle;Max_cycle;Signal;HPM_P1;HPM_P2
2022/10/02 06:47:05;;;;;;;;;0.00;0.00;;;;;18.06;72.74;101743.44;2803510;23;46457;-78
2022/10/02 06:48:40;;;;;;;;;0.00;0.00;;;;;18.09;72.73;101753.06;2337019;28;46561;-79
2022/10/02 06:50:20;;;;;;;;;0.00;0.00;;;;;18.14;72.55;101744.84;2380765;28;44718;-78
2022/10/02 06:52:05;;;;;;;;;0.00;0.00;;;;;18.21;73.02;101749.84;2385289;28;46395;-76
2022/10/02 06:53:21;;;;;;;;;0.00;0.00;;;;;18.25;72.78;101749.69;2385654;28;45151;-77
2022/10/02 06:54:47;;;;;;;;;0.00;0.00;;;;;18.26;72.46;101746.94;2384042;28;46352;-76
2022/10/02 06:56:34;;;;;;;;;0.00;0.00;;;;;18.30;72.48;101744.97;2384011;28;45321;-77
2022/10/02 06:58:09;;;;;;;;;0.00;0.00;;;;;18.35;72.86;101752.75;2379063;28;46231;-77
2022/10/02 07:00:01;;;;;;;;;0.00;0.00;;;;;18.36;71.80;101747.34;2380755;28;45616;-77
2022/10/02 07:01:34;;;;;;;;;0.00;0.00;;;;;18.42;72.00;101754.16;2379731;28;46324;-79
2022/10/02 07:03:05;;;;;;;;;0.00;0.00;;;;;18.44;72.17;101749.63;2385407;28;45191;-79
2022/10/02 07:04:32;;;;;;;;;0.00;0.00;;;;;18.48;72.27;101752.97;2384463;28;45520;-77
2022/10/02 07:06:00;;;;;;;;;1.00;0.00;;;;;18.51;71.80;101753.69;2384458;28;44779;-77
2022/10/02 07:07:31;;;;;;;;;0.00;0.00;;;;;18.54;71.92;101760.66;2384375;28;46199;-77
2022/10/02 07:08:48;;;;;;;;;0.00;0.00;;;;;18.55;72.35;101755.25;2385513;28;45228;-77
2022/10/02 07:10:21;;;;;;;;;0.00;0.00;;;;;18.58;72.36;101758.69;2385005;28;45426;-77
2022/10/02 07:11:56;;;;;;;;;0.00;0.00;;;;;18.61;72.37;101751.44;2385096;28;44772;-77
2022/10/02 07:13:12;;;;;;;;;0.00;0.00;;;;;18.63;72.26;101754.88;2384854;28;45436;-77
2022/10/02 07:14:29;;;;;;;;;0.00;0.00;;;;;18.65;71.63;101754.78;2384172;28;45223;-77
2022/10/02 07:15:45;;;;;;;;;0.00;0.00;;;;;18.66;71.87;101752.06;2384985;28;45644;-77
2022/10/02 07:17:33;;;;;;;;;0.50;0.00;;;;;18.65;71.40;101750.31;2385169;28;45258;-77
2022/10/02 07:18:52;;;;;;;;;1.00;0.00;;;;;18.68;71.05;101746.63;2385175;28;46585;-77
2022/10/02 07:20:24;;;;;;;;;0.00;0.00;;;;;18.72;72.00;101747.31;2380078;28;45633;-77
2022/10/02 07:21:38;;;;;;;;;0.00;0.00;;;;;18.73;71.29;101743.75;2379617;28;46558;-76
2022/10/02 07:23:00;;;;;;;;;0.00;0.00;;;;;18.73;71.44;101733.09;2376257;28;45442;-76
2022/10/02 07:24:35;;;;;;;;;0.00;0.00;;;;;18.78;71.20;101742.56;2382135;28;46176;-77
2022/10/02 07:26:04;;;;;;;;;0.00;0.00;;;;;18.80;71.16;101734.50;2375056;28;45200;-76
2022/10/02 07:27:21;;;;;;;;;0.00;0.00;;;;;18.78;70.84;101737.25;2380527;28;45608;-76
2022/10/02 07:28:34;;;;;;;;;0.00;0.00;;;;;18.82;70.29;101737.94;2385281;28;44747;-76
2022/10/02 07:29:56;;;;;;;;;0.00;0.00;;;;;18.84;70.56;101749.34;2384321;28;45302;-77
2022/10/02 07:31:45;;;;;;;;;0.75;0.00;;;;;18.86;70.94;101739.50;2380586;28;45756;-76
2022/10/02 07:33:12;;;;;;;;;0.00;0.00;;;;;18.89;70.73;101744.66;2338497;29;46457;-76
2022/10/02 07:34:37;;;;;;;;;0.00;0.00;;;;;18.94;71.07;101762.22;2376048;28;45280;-76
2022/10/02 07:36:02;;;;;;;;;0.00;0.00;;;;;18.95;70.47;101747.94;2384496;28;46418;-76
2022/10/02 07:37:46;;;;;;;;;0.00;0.00;;;;;18.98;70.58;101748.66;2385229;28;45285;-76
2022/10/02 07:39:27;;;;;;;;;0.00;0.00;;;;;18.98;70.50;101750.44;2380906;28;46636;-77
2022/10/02 07:41:15;;;;;;;;;0.00;0.00;;;;;18.98;70.01;101759.31;2380901;28;45287;-76
2022/10/02 07:43:04;;;;;;;;;0.00;0.00;;;;;19.00;70.04;101762.75;2370285;28;46640;-77
2022/10/02 07:44:42;;;;;;;;;0.00;0.00;;;;;19.00;69.93;101772.53;2356353;29;45421;-78
2022/10/02 07:46:15;;;;;;;;;0.50;0.25;;;;;19.03;69.53;101761.72;2355373;29;46390;-78
2022/10/02 07:47:44;;;;;;;;;0.00;0.00;;;;;19.03;69.83;101761.72;2355071;29;45484;-80
2022/10/02 07:49:20;;;;;;;;;0.00;0.00;;;;;19.07;69.75;101767.72;2354402;29;45667;-79
2022/10/02 07:51:00;;;;;;;;;0.00;0.00;;;;;19.07;69.87;101757.94;2382575;28;45448;-79
2022/10/02 07:52:23;;;;;;;;;1.00;0.00;;;;;19.12;69.01;101763.03;2384932;28;45408;-78
2022/10/02 07:53:44;;;;;;;;;0.00;0.00;;;;;19.12;69.03;101755.91;2373744;28;44839;-80
2022/10/02 07:55:18;;;;;;;;;0.00;0.00;;;;;19.17;69.72;101763.69;2368405;28;46966;-80
2022/10/02 07:56:29;;;;;;;;;0.75;0.75;;;;;19.19;69.62;101771.56;2377033;28;45749;-79
2022/10/02 07:58:02;;;;;;;;;0.00;0.00;;;;;19.19;69.26;101761.78;2384853;28;45475;-79
2022/10/02 07:59:16;;;;;;;;;2.00;1.00;;;;;19.21;69.40;101765.22;2377689;28;45535;-79
2022/10/02 08:00:30;;;;;;;;;0.00;0.00;;;;;19.21;68.83;101764.38;2384520;28;45413;-79
2022/10/02 08:01:43;;;;;;;;;0.00;0.00;;;;;19.20;68.85;101767.97;2384403;28;45453;-79
2022/10/02 08:02:59;;;;;;;;;0.25;0.25;;;;;19.21;69.18;101773.22;2383282;28;46326;-79
2022/10/02 08:04:17;;;;;;;;;2.00;0.25;;;;;19.20;68.70;101778.66;2384197;28;45199;-79
2022/10/02 08:05:41;;;;;;;;;1.00;0.00;;;;;19.22;68.71;101771.41;2383471;28;46383;-79
2022/10/02 08:06:58;;;;;;;;;0.75;0.00;;;;;19.26;68.80;101778.31;2375805;28;45276;-79
2022/10/02 08:08:28;;;;;;;;;0.25;0.00;;;;;19.28;68.82;101787.09;2377078;28;46544;-79
2022/10/02 08:09:46;;;;;;;;;1.00;1.00;;;;;19.27;68.43;101780.03;2383755;28;45338;-79
2022/10/02 08:11:11;;;;;;;;;1.00;1.00;;;;;19.28;68.09;101787.09;2380012;28;46389;-80
2022/10/02 08:12:27;;;;;;;;;2.00;0.25;;;;;19.28;67.85;101787.09;2380957;28;45553;-79
2022/10/02 08:13:46;;;;;;;;;1.00;0.50;;;;;19.28;67.39;101787.09;2384496;28;45326;-79
2022/10/02 08:14:58;;;;;;;;;0.50;0.25;;;;;19.28;67.80;101784.44;2380482;28;45283;-79
2022/10/02 08:16:13;;;;;;;;;1.00;0.00;;;;;19.31;68.07;101789.56;2375381;28;45505;-79
2022/10/02 08:17:35;;;;;;;;;2.00;1.00;;;;;19.37;67.70;101790.19;2379082;28;44788;-80
2022/10/02 08:18:59;;;;;;;;;1.50;0.00;;;;;19.39;68.11;101781.19;2383383;28;46582;-79
2022/10/02 08:20:31;;;;;;;;;3.00;0.00;;;;;19.45;67.97;101791.53;2382357;28;45283;-79
2022/10/02 08:21:51;;;;;;;;;2.25;1.00;;;;;19.47;67.72;101788.75;2368172;28;47238;-80
2022/10/02 08:23:26;;;;;;;;;1.50;0.00;;;;;19.52;67.54;101796.50;2378987;28;45389;-80
2022/10/02 08:24:49;;;;;;;;;0.75;0.75;;;;;19.51;67.10;101778.78;2384175;28;45508;-80
2022/10/02 08:26:07;;;;;;;;;2.00;0.50;;;;;19.54;67.00;101778.63;2383202;28;45409;-80
2022/10/02 08:27:25;;;;;;;;;1.50;1.00;;;;;19.58;66.93;101787.31;2384493;28;45414;-80
2022/10/02 08:29:04;;;;;;;;;0.75;0.75;;;;;19.62;67.55;101781.72;2384309;28;44746;-79
2022/10/02 08:30:15;;;;;;;;;0.50;0.50;;;;;19.66;67.27;101785.06;2384651;28;46033;-80
2022/10/02 08:31:25;;;;;;;;;2.75;1.00;;;;;19.70;67.67;101781.31;2379666;28;44538;-80
2022/10/02 08:32:36;;;;;;;;;1.25;1.00;;;;;19.75;67.30;101778.38;2375146;28;46376;-80
2022/10/02 08:33:46;;;;;;;;;1.25;1.00;;;;;19.81;66.97;101783.38;2376760;28;45172;-79
2022/10/02 08:34:56;;;;;;;;;2.25;1.00;;;;;19.85;66.43;101798.25;2378828;28;45385;-79
2022/10/02 08:36:15;;;;;;;;;1.00;1.00;;;;;19.90;66.54;101790.84;2384833;28;45405;-79
2022/10/02 08:37:36;;;;;;;;;1.00;1.00;;;;;19.91;66.41;101791.72;2377096;28;45493;-77
2022/10/02 08:38:57;;;;;;;;;1.25;0.75;;;;;19.97;66.40;101794.06;2380396;28;45544;-78
2022/10/02 08:40:09;;;;;;;;;1.25;1.00;;;;;20.01;66.55;101784.03;2382182;28;46257;-78
2022/10/02 08:41:40;;;;;;;;;2.00;1.00;;;;;20.05;65.66;101784.75;2375488;28;45683;-78
2022/10/02 08:43:32;;;;;;;;;2.00;0.50;;;;;20.09;66.15;101780.94;2377585;28;46255;-78
2022/10/02 08:45:14;;;;;;;;;1.00;1.00;;;;;20.14;66.42;101778.91;2357743;28;44626;-79
2022/10/02 08:47:01;;;;;;;;;1.00;1.00;;;;;20.24;66.24;101784.56;2384303;28;46537;-79
2022/10/02 08:48:48;;;;;;;;;3.00;1.00;;;;;20.33;65.69;101785.84;2378511;28;44731;-78
2022/10/02 08:50:25;;;;;;;;;0.75;0.75;;;;;20.38;65.47;101786.44;2380932;28;46192;-78
2022/10/02 08:52:01;;;;;;;;;2.50;1.00;;;;;20.41;65.96;101780.06;2384658;28;44605;-78
2022/10/02 08:53:12;;;;;;;;;3.25;1.00;;;;;20.46;65.81;101794.88;2384403;28;46660;-78
2022/10/02 08:54:35;;;;;;;;;1.00;1.00;;;;;20.52;65.78;101790.13;2384632;28;45306;-78
2022/10/02 08:56:03;;;;;;;;;1.00;1.00;;;;;20.54;66.08;101793.56;2384137;28;46480;-78
2022/10/02 08:57:25;;;;;;;;;2.00;2.00;;;;;20.62;65.38;101793.94;2381697;28;45250;-78
2022/10/02 08:58:54;;;;;;;;;3.00;0.25;;;;;20.68;64.91;101798.94;2383948;28;45412;-78
2022/10/02 09:00:29;;;;;;;;;4.25;1.00;;;;;20.73;64.88;101796.00;2381838;28;45225;-78
2022/10/02 09:02:00;;;;;;;;;1.75;1.50;;;;;20.75;64.29;101794.09;2378626;28;45510;-78
2022/10/02 09:03:49;;;;;;;;;2.50;1.00;;;;;20.83;64.28;101804.31;2382215;28;45486;-78
2022/10/02 09:05:18;;;;;;;;;1.00;1.00;;;;;20.86;64.68;101809.47;2381932;28;46354;-78
2022/10/02 09:06:40;;;;;;;;;2.50;1.25;;;;;20.88;64.63;101799.56;2375827;28;44761;-78
2022/10/02 09:08:12;;;;;;;;;3.00;1.00;;;;;20.90;64.28;101797.66;2381844;28;46796;-78
2022/10/02 09:09:31;;;;;;;;;2.00;1.00;;;;;20.92;64.15;101798.41;2382607;28;45167;-78
2022/10/02 09:11:17;;;;;;;;;3.00;1.75;;;;;20.94;64.32;101800.13;2383722;28;45436;-78
2022/10/02 09:12:55;;;;;;;;;3.00;1.00;;;;;20.95;64.65;101792.03;2374569;28;45264;-78
2022/10/02 09:14:09;;;;;;;;;13.00;11.75;;;;;20.98;64.68;101796.31;2348640;28;45309;-77
2022/10/02 09:15:38;;;;;;;;;4.00;4.00;;;;;21.03;64.55;101804.94;2382201;28;45661;-79
2022/10/02 09:17:14;;;;;;;;;4.50;3.25;;;;;21.04;63.87;101795.97;2375512;28;46856;-79
2022/10/02 09:18:37;;;;;;;;;2.00;2.00;;;;;21.08;64.05;101788.63;2375154;28;45219;-79
2022/10/02 09:20:18;;;;;;;;;1.00;1.00;;;;;21.12;63.13;101799.03;2381956;28;45421;-79
2022/10/02 09:21:31;;;;;;;;;3.00;1.25;;;;;21.14;63.35;101791.78;2384354;28;44690;-79
2022/10/02 09:23:11;;;;;;;;;3.00;1.25;;;;;21.19;63.85;101794.16;2383492;28;45310;-79
2022/10/02 09:24:58;;;;;;;;;1.00;1.00;;;;;21.24;63.84;101788.53;2377382;28;45296;-79
2022/10/02 09:26:14;;;;;;;;;1.00;1.00;;;;;21.30;63.35;101793.50;2367777;28;45634;-79
2022/10/02 09:27:36;;;;;;;;;5.00;2.00;;;;;21.34;63.35;101797.69;2378565;28;44708;-81
2022/10/02 09:29:18;;;;;;;;;2.00;0.00;;;;;21.38;63.55;101794.84;2373497;28;46940;-83
2022/10/02 09:31:04;;;;;;;;;1.75;1.00;;;;;21.42;63.81;101796.38;2381240;28;45415;-81
2022/10/02 09:32:56;;;;;;;;;3.00;1.00;;;;;21.41;63.10;101787.47;2379313;28;46546;-81
2022/10/02 09:34:49;;;;;;;;;2.50;1.00;;;;;21.40;63.05;101785.78;2374150;28;45263;-81
2022/10/02 09:36:23;;;;;;;;;2.00;1.00;;;;;21.40;63.47;101788.44;2380294;28;46127;-81
2022/10/02 09:37:52;;;;;;;;;2.00;2.00;;;;;21.42;63.34;101791.00;2378132;28;45228;-80
2022/10/02 09:39:17;;;;;;;;;2.50;1.00;;;;;21.43;62.92;101793.63;2383582;28;47255;-81
2022/10/02 09:40:34;;;;;;;;;1.25;1.00;;;;;21.44;63.04;101795.31;2383907;28;44792;-83
2022/10/02 09:42:06;;;;;;;;;5.00;0.00;;;;;21.46;62.73;101787.19;2382614;28;46564;-82
2022/10/02 09:43:30;;;;;;;;;1.00;1.00;;;;;21.46;63.14;101792.53;2375607;28;45364;-82
2022/10/02 09:45:19;;;;;;;;;3.00;1.00;;;;;21.48;62.64;101798.66;2382512;28;45428;-82
2022/10/02 09:46:52;;;;;;;;;1.00;0.50;;;;;21.45;63.01;101790.84;2354284;29;44814;-82
2022/10/02 09:48:32;;;;;;;;;2.00;1.00;;;;;21.48;62.49;101787.97;2382994;28;45354;-82
2022/10/02 09:50:03;;;;;;;;;1.00;1.00;;;;;21.48;62.81;101791.47;2384143;28;45393;-82
2022/10/02 09:51:32;;;;;;;;;4.75;1.25;;;;;21.50;62.76;101785.19;2377156;28;46383;-81
2022/10/02 09:52:45;;;;;;;;;2.00;1.00;;;;;21.50;62.36;101788.72;2375101;28;45229;-81
2022/10/02 09:54:20;;;;;;;;;1.00;1.00;;;;;21.47;62.60;101791.59;2381728;28;46535;-81
2022/10/02 09:55:55;;;;;;;;;1.50;1.00;;;;;21.49;62.90;101789.66;2383844;28;45254;-81
2022/10/02 09:57:11;;;;;;;;;1.00;1.00;;;;;21.48;62.74;101788.81;2383039;28;46587;-86
2022/10/02 09:58:28;;;;;;;;;0.50;0.50;;;;;21.48;62.70;101786.13;2373405;28;45384;-86
2022/10/02 10:00:01;;;;;;;;;0.25;0.25;;;;;21.50;62.40;101791.41;2378707;28;46274;-87
2022/10/02 10:01:30;;;;;;;;;4.00;1.00;;;;;21.52;62.47;101800.19;2379429;28;45496;-89
2022/10/02 10:03:02;;;;;;;;;1.00;1.00;;;;;21.50;62.60;101788.72;2383749;28;46284;-91
2022/10/02 10:04:30;;;;;;;;;1.00;0.50;;;;;21.52;62.69;101802.84;2373521;28;45549;-83
2022/10/02 10:06:18;;;;;;;;;1.00;1.00;;;;;21.54;62.48;101795.59;2378851;28;45274;-81
2022/10/02 10:07:44;;;;;;;;;2.00;1.00;;;;;21.57;62.15;101800.75;2383517;28;45458;-81
2022/10/02 10:09:06;;;;;;;;;1.00;1.00;;;;;21.57;62.30;101806.09;2383405;28;46513;-81
2022/10/02 10:10:37;;;;;;;;;2.00;1.00;;;;;21.57;62.40;101800.75;2384612;28;45212;-89
2022/10/02 10:11:56;;;;;;;;;1.00;0.00;;;;;21.58;62.01;101806.97;2379654;28;46423;-77
2022/10/02 10:13:14;;;;;;;;;2.50;1.75;;;;;21.58;61.92;101807.81;2385652;28;45243;-77
2022/10/02 10:14:56;;;;;;;;;4.00;1.25;;;;;21.56;62.09;101798.16;2385726;28;45415;-79
2022/10/02 10:16:31;;;;;;;;;0.00;0.00;;;;;21.58;61.97;101796.28;2381272;28;45206;-78
2022/10/02 10:18:15;;;;;;;;;1.00;1.00;;;;;21.57;62.79;101798.06;2385502;28;45423;-77
2022/10/02 10:19:37;;;;;;;;;0.25;0.25;;;;;21.61;62.25;101793.38;2385585;28;45316;-77
2022/10/02 10:21:35;;;;;;;;;1.00;1.00;;;;;21.64;62.09;101792.31;2385549;28;46309;-75
2022/10/02 10:23:04;;;;;;;;;1.25;1.00;;;;;21.69;62.29;101803.59;2379347;28;44856;-75
2022/10/02 10:24:28;;;;;;;;;4.00;1.00;;;;;21.73;62.06;101799.75;2375104;28;47205;-79
2022/10/02 10:25:56;;;;;;;;;1.00;1.00;;;;;21.74;62.03;101798.81;2372424;28;45323;-76
2022/10/02 10:27:31;;;;;;;;;1.50;0.00;;;;;21.78;62.06;101799.50;2376449;28;45496;-78
2022/10/02 10:28:54;;;;;;;;;2.75;1.00;;;;;21.79;62.24;101799.38;2384484;28;44692;-80
2022/10/02 10:30:12;;;;;;;;;3.00;1.00;;;;;21.83;61.55;101808.06;2385188;28;45329;-80
2022/10/02 10:31:52;;;;;;;;;0.25;0.25;;;;;21.87;62.06;101806.94;2384926;28;45792;-78
2022/10/02 10:33:31;;;;;;;;;3.75;0.75;;;;;21.89;61.57;101810.38;2374602;28;48422;-77
2022/10/02 10:34:47;;;;;;;;;1.00;1.00;;;;;21.90;61.40;101805.88;2382412;28;45339;-80
2022/10/02 10:38:32;;;;;;;;;3.00;1.00;;;;;21.93;61.62;101805.66;2385507;28;45207;-81
2022/10/02 10:40:04;;;;;;;;;3.25;0.50;;;;;21.95;61.39;101809.13;2383474;28;45646;-79
2022/10/02 10:42:00;;;;;;;;;1.00;1.00;;;;;21.97;62.01;101804.53;2384807;28;45152;-76
2022/10/02 10:43:50;;;;;;;;;1.00;0.50;;;;;22.00;61.96;101798.97;2375543;28;47086;-82
2022/10/02 10:45:28;;;;;;;;;1.25;1.00;;;;;22.05;61.56;101803.19;2379748;28;45505;-84
2022/10/02 10:47:20;;;;;;;;;1.00;1.00;;;;;22.10;61.63;101793.88;2380486;28;46690;-81
2022/10/02 10:48:39;;;;;;;;;0.75;0.75;;;;;22.11;61.76;101797.41;2358402;28;45419;-79
2022/10/02 10:50:03;;;;;;;;;0.50;0.50;;;;;22.17;61.28;101799.69;2382723;28;45567;-79
2022/10/02 10:51:29;;;;;;;;;0.00;0.00;;;;;22.22;60.96;101799.38;2393034;28;44564;-80
2022/10/02 10:53:16;;;;;;;;;1.00;1.00;;;;;22.24;60.54;101798.31;2381508;28;45446;-81
2022/10/02 10:54:51;;;;;;;;;2.50;0.25;;;;;22.28;60.20;101804.31;2385262;28;45287;-80
2022/10/02 10:56:24;;;;;;;;;1.00;1.00;;;;;22.26;60.38;101804.44;2384080;28;45573;-84
2022/10/02 10:57:50;;;;;;;;;2.25;1.00;;;;;22.30;60.99;101802.41;2385330;28;45246;-84
2022/10/02 10:59:07;;;;;;;;;1.00;1.00;;;;;22.32;60.06;101802.31;2385290;28;45390;-83
2022/10/02 11:00:20;;;;;;;;;0.00;0.00;;;;;22.32;59.95;101799.63;2385512;28;45355;-82
2022/10/02 11:01:55;;;;;;;;;0.00;0.00;;;;;22.31;60.84;101797.91;2373955;28;47278;-83
2022/10/02 11:03:33;;;;;;;;;0.00;0.00;;;;;22.34;59.99;101803.06;2381050;28;44654;-86
2022/10/02 11:05:17;;;;;;;;;2.00;1.00;;;;;22.35;60.22;101794.03;2374154;28;47151;-85
2022/10/02 11:06:33;;;;;;;;;0.75;0.75;;;;;22.36;59.97;101801.13;2375913;28;45402;-84
2022/10/02 11:08:12;;;;;;;;;3.00;1.00;;;;;22.37;59.78;101800.19;2383247;28;45370;-85
2022/10/02 11:09:50;;;;;;;;;2.00;2.00;;;;;22.36;59.48;101796.66;2372943;28;45365;-85
2022/10/02 11:11:06;;;;;;;;;2.50;0.00;;;;;22.36;59.59;101796.66;2377425;28;46181;-87
2022/10/02 11:12:29;;;;;;;;;0.00;0.00;;;;;22.35;58.82;101796.72;2374250;28;45222;-86
2022/10/02 11:13:59;;;;;;;;;3.00;1.00;;;;;22.29;58.72;101795.34;2379175;28;46618;-87
2022/10/02 11:15:38;;;;;;;;;0.75;0.50;;;;;22.26;58.74;101793.72;2385430;28;45223;-85
2022/10/02 11:17:16;;;;;;;;;1.75;0.00;;;;;22.21;59.10;101794.97;2384765;28;46378;-87
2022/10/02 11:18:39;;;;;;;;;0.50;0.50;;;;;22.22;59.79;101796.72;2383520;28;45203;-86
2022/10/02 11:20:19;;;;;;;;;0.00;0.00;;;;;22.24;59.00;101795.66;2370966;28;48023;-84
2022/10/02 11:21:29;;;;;;;;;0.00;0.00;;;;;22.28;58.90;101793.59;2382595;28;44820;-87
2022/10/02 11:23:13;;;;;;;;;1.00;1.00;;;;;22.34;58.37;101795.03;2374808;28;48028;-87
2022/10/02 11:24:41;;;;;;;;;0.75;0.00;;;;;22.39;59.10;101794.72;2374443;28;45235;-91
2022/10/02 11:26:13;;;;;;;;;0.00;0.00;;;;;22.42;58.90;101798.03;2380397;28;45811;-86
2022/10/02 11:27:52;;;;;;;;;0.25;0.25;;;;;22.46;58.62;101786.16;2384379;28;45201;-84
2022/10/02 11:29:11;;;;;;;;;0.50;0.00;;;;;22.51;58.06;101793.03;2383843;28;45492;-86
2022/10/02 11:30:48;;;;;;;;;0.75;0.75;;;;;22.55;58.02;101794.53;2385135;28;45322;-86
2022/10/02 11:32:13;;;;;;;;;0.75;0.75;;;;;22.56;58.47;101801.63;2369610;28;47299;-86
2022/10/02 11:33:32;;;;;;;;;0.00;0.00;;;;;22.56;57.71;101796.25;2370396;28;45540;-86
2022/10/02 11:35:02;;;;;;;;;1.00;1.00;;;;;22.54;57.99;101801.72;2367977;28;47899;-86
2022/10/02 11:36:12;;;;;;;;;1.00;1.00;;;;;22.51;57.58;101798.38;2380232;28;45346;-86
2022/10/02 11:38:04;;;;;;;;;2.00;0.25;;;;;22.48;57.84;101805.66;2375078;28;48146;-86
2022/10/02 11:39:40;;;;;;;;;2.50;1.00;;;;;22.44;58.25;101801.50;2354911;29;45472;-90
2022/10/02 11:40:53;;;;;;;;;0.25;0.25;;;;;22.38;57.94;101804.56;2342964;29;47645;-85
2022/10/02 11:42:16;;;;;;;;;0.00;0.00;;;;;22.34;58.04;101803.06;2347891;29;44865;-85
2022/10/02 11:44:01;;;;;;;;;0.25;0.25;;;;;22.26;58.09;101811.59;2352231;29;48465;-85
2022/10/02 11:45:37;;;;;;;;;1.00;1.00;;;;;22.20;57.82;101796.78;2369127;28;45326;-84
2022/10/02 11:47:31;;;;;;;;;1.00;1.00;;;;;22.14;58.52;101799.88;2386459;28;45377;-84
2022/10/02 11:48:47;;;;;;;;;2.50;1.00;;;;;22.10;58.30;101796.53;2378927;28;45315;-84
2022/10/02 11:50:30;;;;;;;;;1.00;1.00;;;;;22.07;58.52;101795.91;2381111;28;46636;-84
2022/10/02 11:52:08;;;;;;;;;1.00;1.00;;;;;22.03;58.23;101801.44;2384411;28;44959;-85
2022/10/02 11:53:34;;;;;;;;;1.00;1.00;;;;;22.01;58.54;101795.34;2379598;28;47349;-85
2022/10/02 11:55:08;;;;;;;;;0.25;0.25;;;;;22.01;58.13;101800.69;2370261;28;45264;-85
2022/10/02 11:56:40;;;;;;;;;0.00;0.00;;;;;22.01;58.27;101797.16;2376598;28;46664;-85
2022/10/02 11:58:11;;;;;;;;;1.75;0.00;;;;;21.99;57.96;101801.75;2381477;28;45484;-85
2022/10/02 12:00:04;;;;;;;;;0.50;0.00;;;;;21.94;59.01;101820.78;2383860;28;45600;-86
2022/10/02 12:01:26;;;;;;;;;2.00;2.00;;;;;21.84;59.97;101833.00;2365880;28;45247;-85
2022/10/02 12:02:46;;;;;;;;;2.00;0.25;;;;;21.80;60.07;101829.69;2373424;28;47283;-86
2022/10/02 12:04:33;;;;;;;;;0.50;0.00;;;;;21.72;60.77;101843.53;2369043;28;45802;-85
2022/10/02 12:06:12;;;;;;;;;0.00;0.00;;;;;21.64;60.66;101851.19;2374002;28;47463;-85
2022/10/02 12:07:47;;;;;;;;;1.00;0.00;;;;;21.55;61.73;101839.25;2378648;28;45286;-85
2022/10/02 12:09:18;;;;;;;;;0.00;0.00;;;;;21.52;61.32;101840.31;2373184;28;48236;-85
2022/10/02 12:10:47;;;;;;;;;1.00;1.00;;;;;21.45;62.28;101845.19;2370497;28;45463;-85
2022/10/02 12:12:08;;;;;;;;;1.00;1.00;;;;;21.41;62.45;101840.13;2379607;28;45340;-85
2022/10/02 12:13:53;;;;;;;;;0.00;0.00;;;;;21.39;62.95;101839.31;2383862;28;45583;-85
2022/10/02 12:15:27;;;;;;;;;2.75;0.25;;;;;21.41;63.54;101840.13;2378999;28;46184;-85
2022/10/02 12:16:56;;;;;;;;;2.00;0.75;;;;;21.43;63.29;101832.84;2375076;28;45548;-85
2022/10/02 12:18:27;;;;;;;;;0.75;0.00;;;;;21.45;62.83;101829.13;2381992;28;45477;-86
2022/10/02 12:26:57;;;;;;;;;1.00;1.00;;;;;21.75;62.28;101827.31;2382845;28;45295;-85
2022/10/02 12:26:57;;;;;;;;;1.25;1.25;;;;;21.52;62.83;101826.06;2383172;28;44771;-85
2022/10/02 12:28:29;;;;;;;;;3.00;1.00;;;;;21.79;63.90;101822.59;2384102;28;45732;-85
2022/10/02 12:29:48;;;;;;;;;1.00;1.00;;;;;21.80;63.68;101809.09;2384764;28;44608;-85
2022/10/02 12:31:04;;;;;;;;;7.75;3.25;;;;;21.82;63.42;101819.72;2383204;28;45635;-85
2022/10/02 12:32:19;;;;;;;;;2.00;0.25;;;;;21.86;62.33;101809.66;2374383;28;45256;-85
2022/10/02 12:33:33;;;;;;;;;0.75;0.75;;;;;21.90;62.63;101806.72;2383821;28;46505;-84
2022/10/02 12:35:04;;;;;;;;;2.25;1.00;;;;;21.95;62.85;101811.81;2373564;28;45913;-89
2022/10/02 12:36:41;;;;;;;;;0.75;0.75;;;;;21.99;61.38;101805.28;2379025;28;45469;-82
2022/10/02 12:38:20;;;;;;;;;8.75;7.00;;;;;22.01;62.43;101806.03;2368327;28;45321;-84
2022/10/02 12:40:00;;;;;;;;;1.00;1.00;;;;;22.03;62.43;101804.13;2371306;28;48483;-84
2022/10/02 12:41:27;;;;;;;;;1.00;1.00;;;;;22.04;61.94;101813.00;2378047;28;45223;-84
2022/10/02 12:42:58;;;;;;;;;1.00;1.00;;;;;22.01;62.12;101819.44;2377656;28;46207;-84
2022/10/02 12:44:15;;;;;;;;;4.50;2.00;;;;;22.00;61.71;101823.03;2380231;28;45556;-84
2022/10/02 12:46:02;;;;;;;;;1.00;1.00;;;;;22.00;61.78;101814.19;2381619;28;46545;-84
2022/10/02 12:47:30;;;;;;;;;0.00;0.00;;;;;21.99;61.94;101815.13;2367193;28;45578;-84
2022/10/02 12:49:05;;;;;;;;;1.00;1.00;;;;;21.97;61.07;101814.38;2377250;28;45577;-84
2022/10/02 12:50:19;;;;;;;;;1.00;1.00;;;;;21.94;61.42;101811.88;2380818;28;45597;-85
2022/10/02 12:52:12;;;;;;;;;1.25;1.25;;;;;21.92;61.78;101804.84;2372827;28;46334;-84
2022/10/02 12:53:22;;;;;;;;;0.00;0.00;;;;;21.90;61.18;101795.19;2371822;28;45256;-84
2022/10/02 12:55:05;;;;;;;;;1.00;1.00;;;;;21.89;62.12;101807.69;2365244;28;47544;-84
2022/10/02 12:56:34;;;;;;;;;0.00;0.00;;;;;21.90;61.33;101811.25;2377573;28;45168;-84
2022/10/02 12:58:04;;;;;;;;;2.25;2.00;;;;;21.91;61.97;101813.81;2378017;28;47561;-84
2022/10/02 12:59:27;;;;;;;;;1.50;1.00;;;;;21.94;60.96;101814.56;2371884;28;44828;-84
2022/10/02 13:00:59;;;;;;;;;0.00;0.00;;;;;21.94;61.27;101812.75;2373969;28;46530;-83
2022/10/02 13:02:25;;;;;;;;;1.00;1.00;;;;;21.93;62.13;101819.06;2370989;28;45312;-84
2022/10/02 13:04:12;;;;;;;;;4.25;2.00;;;;;21.95;60.87;101819.84;2379969;28;46437;-84
2022/10/02 13:05:56;;;;;;;;;0.25;0.25;;;;;21.96;60.40;101816.19;2381337;28;45543;-84
2022/10/02 13:07:29;;;;;;;;;2.75;1.50;;;;;21.94;60.90;101815.44;2382431;28;46574;-83
2022/10/02 13:08:41;;;;;;;;;0.00;0.00;;;;;21.94;62.14;101815.44;2359731;28;45204;-83
2022/10/02 13:10:24;;;;;;;;;1.50;1.00;;;;;21.97;61.40;101817.91;2373416;28;48099;-84
2022/10/02 13:12:06;;;;;;;;;1.00;1.00;;;;;22.01;61.54;101822.09;2364464;28;45329;-84
2022/10/02 13:13:53;;;;;;;;;0.00;0.00;;;;;22.02;61.76;101826.50;2364988;28;48263;-85
2022/10/02 13:15:24;;;;;;;;;2.00;1.00;;;;;22.06;60.98;101831.63;2377953;28;45681;-84
2022/10/02 13:16:43;;;;;;;;;0.25;0.25;;;;;22.07;60.96;101833.38;2373704;28;47051;-84
2022/10/02 13:18:15;;;;;;;;;1.00;1.00;;;;;22.07;60.76;101833.38;2368779;28;45293;-84
2022/10/02 13:19:32;;;;;;;;;1.00;0.00;;;;;22.03;60.59;101830.88;2380059;28;46355;-84
2022/10/02 13:20:55;;;;;;;;;0.00;0.00;;;;;22.03;60.73;101832.69;2384506;28;45159;-84
2022/10/02 13:22:23;;;;;;;;;2.00;2.00;;;;;22.05;60.23;101829.94;2372529;28;47105;-84
2022/10/02 13:23:49;;;;;;;;;0.75;0.75;;;;;22.08;60.29;101830.59;2376876;28;45349;-84
2022/10/02 13:25:18;;;;;;;;;2.50;0.50;;;;;22.11;60.24;101816.13;2380202;28;46589;-84
2022/10/02 13:26:55;;;;;;;;;1.00;1.00;;;;;22.14;60.50;101829.34;2381457;28;45531;-84
2022/10/02 13:28:28;;;;;;;;;0.00;0.00;;;;;22.19;60.21;101821.88;2374197;28;47407;-84
2022/10/02 13:29:51;;;;;;;;;1.00;0.25;;;;;22.22;59.41;101816.31;2368716;28;45346;-84
2022/10/02 13:31:26;;;;;;;;;0.00;0.00;;;;;22.25;58.92;101809.88;2368878;28;47911;-84
2022/10/02 13:32:54;;;;;;;;;1.75;0.00;;;;;22.27;59.53;101818.69;2373590;28;45307;-85
2022/10/02 13:34:21;;;;;;;;;0.00;0.00;;;;;22.30;59.39;101813.09;2372150;28;48450;-84
2022/10/02 13:36:05;;;;;;;;;0.25;0.25;;;;;22.32;59.76;101816.53;2382925;28;44890;-84
2022/10/02 13:37:16;;;;;;;;;1.00;1.00;;;;;22.33;59.25;101804.88;2372836;28;47634;-84
2022/10/02 13:38:26;;;;;;;;;0.50;0.00;;;;;22.36;58.28;101818.06;2368476;28;45253;-83
2022/10/02 13:40:00;;;;;;;;;0.00;0.00;;;;;22.37;58.64;101798.34;2371407;28;47313;-84
2022/10/02 13:41:29;;;;;;;;;2.00;0.00;;;;;22.39;58.99;101808.09;2376945;28;45351;-84
2022/10/02 13:43:04;;;;;;;;;0.00;0.00;;;;;22.40;59.21;101813.34;2372380;28;47525;-84
2022/10/02 13:44:24;;;;;;;;;0.00;0.00;;;;;22.39;59.46;101810.78;2369866;28;45642;-84
2022/10/02 13:45:44;;;;;;;;;1.25;0.00;;;;;22.37;58.85;101811.72;2377095;28;45498;-84
2022/10/02 13:47:22;;;;;;;;;0.75;0.75;;;;;22.39;58.92;101800.94;2378562;28;45531;-85
2022/10/02 13:48:41;;;;;;;;;1.00;1.00;;;;;22.39;58.26;101810.78;2383968;28;46314;-84
2022/10/02 13:49:58;;;;;;;;;2.00;0.00;;;;;22.39;59.24;101814.34;2384230;28;45325;-85